Springfield, AR (72157)

12:54 PM CDT on July 07, 2015 (GMT -0500)
Tall Oaks | | Change Station
CLOSE
Current Station
Personal Weather Station
Location: Greenbrier, AR
Elevation: 361 ft
Nearby Weather Stations

Elev 361 ft 35.23 °N, 92.40 °W | Updated 3 minutes ago

Mostly Cloudy
Mostly Cloudy
89.7 °F
Feels Like 103 °F
N
1.0
Wind Variable Wind from SSW
Gusts 7.0 mph

Today
High -- | Low -- °F
--% Chance of Precip.
Yesterday
High -- | Low -- °F
Precip. -- in
6:01 AM 8:28 PM
Waning Gibbous, 63% visible
Pressure 30.01 in
Visibility 8.0 miles
Clouds Few 3700 ft
Heat Index 103 °F
Dew Point 77 °F
Humidity 67%
Rainfall 0.00 in
Snow Depth Not available.
UV 11 out of 12
Pollen 2.80 out of 12
Air Quality Not available.
Flu Activity Not available.
METAR KCCA 071735Z AUTO 20010G15KT 8SM FEW037 30/24 A3001 RMK AO2

More Conditions Fewer Conditions

Pressure 30.01 in
Visibility 8.0 miles
Clouds Few 3700 ft
Heat Index 103 °F
Dew Point 77 °F
Humidity 67%
Rainfall 0.00 in
Snow Depth Not available.
UV 11 out of 12
Pollen 2.80 out of 12
Air Quality Not available.
Flu Activity Not available.
METAR KCCA 071735Z AUTO 20010G15KT 8SM FEW037 30/24 A3001 RMK AO2

More Conditions Fewer Conditions

10-Day Weather Forecast

×

Almanac

Astronomy

Jul. 07, 2015 Rise Set
Actual Time
Civil Twilight
Nautical Twilight
Astronomical Twilight
Moon
Length of Visible Light
Length of Day
Tomorrow will be .
, % of the Moon is Illuminated

Today's Extremes

State Highs State Lows

Community

WunderPhotos

Upload Photos

1,835,858 photos uploaded!

WunderBlogs® & News

Nearby

Air Quality

  Air Quality AQ Index Pollutant
Not available.

Snow Depth

Station Depth Elevation

Earthquake Activity

City Distance Mag. Time & Date
Minimum magnitude displayed is 2.5.

Coastal Water Temperatures

Place Temperature

Stations

Nearby Weather Stations

Station Location Temp. Windchill Dew Point Humidity Wind Precip. Elev Updated Type